createdAt,value
2023-05-18T00:00:41.283Z,1012.66
2023-05-18T00:01:38.977Z,1012.65
2023-05-18T00:02:39.223Z,1012.63
2023-05-18T00:03:40.577Z,1012.66
2023-05-18T00:04:45.204Z,1012.63
2023-05-18T00:05:41.585Z,1012.59
2023-05-18T00:06:44.148Z,1012.64
2023-05-18T00:07:42.257Z,1012.64
2023-05-18T00:08:40.431Z,1012.65
2023-05-18T00:09:40.584Z,1012.63
2023-05-18T00:10:40.793Z,1012.61
2023-05-18T00:11:41.159Z,1012.63
2023-05-18T00:12:41.303Z,1012.63
2023-05-18T00:13:41.470Z,1012.66
2023-05-18T00:14:41.632Z,1012.62
2023-05-18T00:15:42.825Z,1012.64
2023-05-18T00:16:42.028Z,1012.65
2023-05-18T00:17:43.207Z,1012.66
2023-05-18T00:18:42.373Z,1012.61
2023-05-18T00:19:43.490Z,1012.65
2023-05-18T00:21:27.879Z,1012.64
2023-05-18T00:22:25.601Z,1012.63
2023-05-18T00:23:25.729Z,1012.64
2023-05-18T00:24:27.820Z,1012.58
2023-05-18T00:25:26.627Z,1012.63
2023-05-18T00:26:26.289Z,1012.69
2023-05-18T00:27:27.388Z,1012.63
2023-05-18T00:28:26.554Z,1012.63
2023-05-18T00:29:26.711Z,1012.65
2023-05-18T00:30:26.863Z,1012.64
2023-05-18T00:31:29.580Z,1012.64
2023-05-18T00:32:27.290Z,1012.68
2023-05-18T00:33:29.476Z,1012.59
2023-05-18T00:34:29.213Z,1012.60
2023-05-18T00:35:27.975Z,1012.64
2023-05-18T00:36:28.323Z,1012.64
2023-05-18T00:37:28.489Z,1012.60
2023-05-18T00:38:28.816Z,1012.61
2023-05-18T00:39:28.964Z,1012.62
2023-05-18T00:40:29.174Z,1012.64
2023-05-18T00:41:29.523Z,1012.67
2023-05-18T00:42:30.639Z,1012.73
2023-05-18T00:43:32.238Z,1012.66
2023-05-18T00:44:30.855Z,1012.71
2023-05-18T00:45:30.150Z,1012.67
2023-05-18T00:46:32.513Z,1012.74
2023-05-18T00:47:30.726Z,1012.72
2023-05-18T00:48:30.830Z,1012.75
2023-05-18T00:49:30.999Z,1012.68
2023-05-18T00:50:33.633Z,1012.71
2023-05-18T00:51:31.430Z,1012.74
2023-05-18T00:52:31.613Z,1012.67
2023-05-18T00:53:31.764Z,1012.70
2023-05-18T00:54:34.382Z,1012.66
2023-05-18T00:55:32.199Z,1012.71
2023-05-18T00:56:34.586Z,1012.70
2023-05-18T00:57:33.716Z,1012.76
2023-05-18T00:58:32.351Z,1012.81
2023-05-18T00:59:32.582Z,1012.81
2023-05-18T01:00:32.721Z,1012.74
2023-05-18T01:01:34.040Z,1012.76
2023-05-18T01:02:34.425Z,1012.77
2023-05-18T01:03:35.689Z,1012.73
2023-05-18T01:04:40.407Z,1012.79
2023-05-18T01:05:36.614Z,1012.77
2023-05-18T01:06:36.287Z,1012.77
2023-05-18T01:07:34.306Z,1012.73
2023-05-18T01:08:34.489Z,1012.78
2023-05-18T01:09:34.636Z,1012.78
2023-05-18T01:10:37.270Z,1012.80
2023-05-18T01:11:37.445Z,1012.74
2023-05-18T01:12:35.126Z,1012.78
2023-05-18T01:13:35.292Z,1012.76
2023-05-18T01:14:37.526Z,1012.78
2023-05-18T01:15:35.690Z,1012.84
2023-05-18T01:16:38.846Z,1012.85
2023-05-18T01:17:36.607Z,1012.84
2023-05-18T01:18:36.408Z,1012.77
2023-05-18T01:19:39.109Z,1012.84
2023-05-18T01:20:37.819Z,1012.79
2023-05-18T01:21:39.059Z,1012.84
2023-05-18T01:22:37.277Z,1012.84
2023-05-18T01:23:40.104Z,1012.89
2023-05-18T01:24:38.867Z,1012.84
2023-05-18T01:25:39.947Z,1012.82
2023-05-18T01:26:38.254Z,1012.87
2023-05-18T01:27:39.462Z,1012.88
2023-05-18T01:28:38.704Z,1012.88
2023-05-18T01:29:41.436Z,1012.91
2023-05-18T01:30:39.133Z,1012.90
2023-05-18T01:31:41.786Z,1012.94
2023-05-18T01:32:39.546Z,1012.94
2023-05-18T01:33:39.870Z,1012.93
2023-05-18T01:34:47.921Z,1012.92
2023-05-18T01:35:40.160Z,1012.96
2023-05-18T01:36:40.388Z,1012.97
2023-05-18T01:37:43.035Z,1012.92
2023-05-18T01:38:43.150Z,1012.93
2023-05-18T01:39:40.706Z,1012.96
2023-05-18T01:40:40.963Z,1012.95
2023-05-18T01:41:41.263Z,1012.96
2023-05-18T01:42:42.927Z,1012.94
2023-05-18T01:43:41.729Z,1012.95
2023-05-18T01:44:41.914Z,1012.91
2023-05-18T01:45:42.067Z,1012.92
2023-05-18T01:46:43.395Z,1012.92
2023-05-18T01:47:43.671Z,1012.88
2023-05-18T01:48:42.862Z,1012.92
2023-05-18T01:49:43.167Z,1012.95
2023-05-18T01:50:43.384Z,1012.91
2023-05-18T01:51:46.294Z,1012.97
2023-05-18T01:52:44.016Z,1012.92
2023-05-18T01:53:44.229Z,1012.91
2023-05-18T01:54:46.955Z,1012.91
2023-05-18T01:55:44.619Z,1012.95
2023-05-18T01:56:44.789Z,1012.91
2023-05-18T01:57:47.407Z,1012.94
2023-05-18T01:58:47.502Z,1012.91
2023-05-18T01:59:47.233Z,1012.92
2023-05-18T02:00:46.352Z,1012.90
2023-05-18T02:01:46.592Z,1012.96
2023-05-18T02:02:45.907Z,1012.91
2023-05-18T02:03:47.215Z,1012.95
2023-05-18T02:04:49.444Z,1012.95
2023-05-18T02:05:46.635Z,1013.00
2023-05-18T02:06:46.802Z,1012.96
2023-05-18T02:07:46.967Z,1012.97
2023-05-18T02:08:49.618Z,1012.94
2023-05-18T02:09:47.329Z,1012.91
2023-05-18T02:10:47.534Z,1012.91
2023-05-18T02:11:47.881Z,1012.95
2023-05-18T02:12:48.628Z,1012.95
2023-05-18T02:13:48.447Z,1012.90
2023-05-18T02:14:50.117Z,1012.93
2023-05-18T02:15:51.333Z,1012.96
2023-05-18T02:16:48.988Z,1012.93
2023-05-18T02:17:49.154Z,1012.95
2023-05-18T02:18:49.346Z,1012.93
2023-05-18T02:19:49.616Z,1012.93
2023-05-18T02:20:50.822Z,1012.93
2023-05-18T02:21:50.003Z,1012.94
2023-05-18T02:22:50.205Z,1012.94
2023-05-18T02:23:50.349Z,1012.93
2023-05-18T02:24:50.514Z,1012.96
2023-05-18T02:25:53.246Z,1012.89
2023-05-18T02:26:52.385Z,1012.94
2023-05-18T02:27:51.095Z,1012.93
2023-05-18T02:28:54.161Z,1012.92
2023-05-18T02:29:53.786Z,1012.90
2023-05-18T02:30:51.444Z,1012.89
2023-05-18T02:31:51.680Z,1012.90
2023-05-18T02:32:51.887Z,1012.94
2023-05-18T02:33:53.930Z,1012.90
2023-05-18T02:34:54.133Z,1012.89
2023-05-18T02:35:54.771Z,1012.89
2023-05-18T02:36:52.549Z,1012.94
2023-05-18T02:37:52.699Z,1012.91
2023-05-18T02:38:52.995Z,1012.92
2023-05-18T02:39:53.178Z,1012.92
2023-05-18T02:40:53.342Z,1012.94
2023-05-18T02:41:53.626Z,1012.97
2023-05-18T02:42:54.808Z,1012.97
2023-05-18T02:43:56.417Z,1012.98
2023-05-18T02:44:54.070Z,1012.93
2023-05-18T02:45:55.178Z,1012.98
2023-05-18T02:46:54.560Z,1012.96
2023-05-18T02:47:54.970Z,1012.96
2023-05-18T02:48:55.255Z,1012.98
2023-05-18T02:49:55.417Z,1013.00
2023-05-18T02:50:55.680Z,1013.03
2023-05-18T02:51:55.896Z,1013.04
2023-05-18T02:52:56.187Z,1013.03
2023-05-18T02:53:58.009Z,1013.08
2023-05-18T02:54:58.661Z,1013.05
2023-05-18T02:55:57.826Z,1012.99
2023-05-18T02:56:57.120Z,1013.08
2023-05-18T02:57:58.834Z,1013.03
2023-05-18T02:58:57.644Z,1013.02
2023-05-18T02:59:58.723Z,1013.07
2023-05-18T03:00:57.923Z,1013.02
2023-05-18T03:02:00.179Z,1013.01
2023-05-18T03:03:01.023Z,1013.03
2023-05-18T03:04:00.501Z,1013.02
2023-05-18T03:05:04.881Z,1013.03
2023-05-18T03:06:00.555Z,1013.04
2023-05-18T03:07:00.716Z,1013.00
2023-05-18T03:07:59.861Z,1013.00
2023-05-18T03:09:00.020Z,1013.07
2023-05-18T03:10:00.182Z,1013.07
2023-05-18T03:11:00.470Z,1013.07
2023-05-18T03:12:01.589Z,1013.04
2023-05-18T03:13:01.700Z,1013.04
2023-05-18T03:14:00.868Z,1013.04
2023-05-18T03:15:04.100Z,1013.06
2023-05-18T03:16:01.293Z,1013.09
2023-05-18T03:17:01.533Z,1013.05
2023-05-18T03:18:02.827Z,1013.09
2023-05-18T03:19:02.314Z,1013.06
2023-05-18T03:20:04.580Z,1013.12
2023-05-18T03:21:05.225Z,1013.14
2023-05-18T03:22:02.386Z,1013.14
2023-05-18T03:23:03.582Z,1013.15
2023-05-18T03:24:02.767Z,1013.12
2023-05-18T03:25:03.878Z,1013.13
2023-05-18T03:26:03.041Z,1013.14
2023-05-18T03:27:03.250Z,1013.16
2023-05-18T03:28:03.409Z,1013.14
2023-05-18T03:29:03.588Z,1013.14
2023-05-18T03:30:03.752Z,1013.15
2023-05-18T03:31:05.983Z,1013.16
2023-05-18T03:32:04.211Z,1013.13
2023-05-18T03:33:06.179Z,1013.17
2023-05-18T03:34:04.837Z,1013.12
2023-05-18T03:35:07.598Z,1013.15
2023-05-18T03:36:05.338Z,1013.13
2023-05-18T03:37:06.969Z,1013.14
2023-05-18T03:38:05.634Z,1013.11
2023-05-18T03:39:05.823Z,1013.17
2023-05-18T03:40:08.519Z,1013.17
2023-05-18T03:41:06.225Z,1013.22
2023-05-18T03:42:06.382Z,1013.21
2023-05-18T03:43:06.530Z,1013.19
2023-05-18T03:44:06.834Z,1013.16
2023-05-18T03:45:09.991Z,1013.20
2023-05-18T03:46:07.332Z,1013.20
2023-05-18T03:47:07.548Z,1013.22
2023-05-18T03:48:07.810Z,1013.17
2023-05-18T03:49:08.060Z,1013.18
2023-05-18T03:50:08.292Z,1013.14
2023-05-18T03:51:08.454Z,1013.17
2023-05-18T03:52:08.820Z,1013.15
2023-05-18T03:53:11.454Z,1013.15
2023-05-18T03:54:09.136Z,1013.19
2023-05-18T03:55:10.893Z,1013.23
2023-05-18T03:56:09.525Z,1013.28
2023-05-18T03:57:12.189Z,1013.20
2023-05-18T03:58:09.842Z,1013.23
2023-05-18T03:59:10.161Z,1013.21
2023-05-18T04:00:10.400Z,1013.22
2023-05-18T04:01:10.590Z,1013.18
2023-05-18T04:02:10.905Z,1013.20
2023-05-18T04:03:11.225Z,1013.20
2023-05-18T04:04:14.889Z,1013.18
2023-05-18T04:05:22.262Z,1013.24
2023-05-18T04:06:11.965Z,1013.17
2023-05-18T04:07:14.209Z,1013.23
2023-05-18T04:08:12.605Z,1013.24
2023-05-18T04:09:12.764Z,1013.26
2023-05-18T04:10:13.988Z,1013.24
2023-05-18T04:11:13.209Z,1013.28
2023-05-18T04:12:13.378Z,1013.29
2023-05-18T04:13:13.602Z,1013.28
2023-05-18T04:14:15.523Z,1013.25
2023-05-18T04:15:17.300Z,1013.29
2023-05-18T04:16:14.554Z,1013.27
2023-05-18T04:17:15.879Z,1013.31
2023-05-18T04:18:15.083Z,1013.25
2023-05-18T04:19:15.357Z,1013.28
2023-05-18T04:20:15.579Z,1013.27
2023-05-18T04:21:15.853Z,1013.28
2023-05-18T04:22:16.034Z,1013.28
2023-05-18T04:23:16.232Z,1013.27
2023-05-18T04:24:17.399Z,1013.29
2023-05-18T04:25:19.104Z,1013.29
2023-05-18T04:26:16.918Z,1013.31
2023-05-18T04:27:17.103Z,1013.32
2023-05-18T04:28:17.351Z,1013.22
2023-05-18T04:29:19.595Z,1013.29
2023-05-18T04:30:17.726Z,1013.33
2023-05-18T04:31:17.917Z,1013.26
2023-05-18T04:32:18.362Z,1013.24
2023-05-18T04:33:20.733Z,1013.30
2023-05-18T04:34:19.528Z,1013.27
2023-05-18T04:35:20.707Z,1013.30
2023-05-18T04:36:20.786Z,1013.27
2023-05-18T04:37:19.256Z,1013.25
2023-05-18T04:38:20.720Z,1013.24
2023-05-18T04:39:19.897Z,1013.30
2023-05-18T04:40:20.143Z,1013.29
2023-05-18T04:41:20.375Z,1013.35
2023-05-18T04:42:20.656Z,1013.30
2023-05-18T04:43:20.883Z,1013.33
2023-05-18T04:44:22.888Z,1013.33
2023-05-18T04:45:23.077Z,1013.33
2023-05-18T04:46:21.395Z,1013.35
2023-05-18T04:47:21.576Z,1013.30
2023-05-18T04:48:21.855Z,1013.33
2023-05-18T04:49:22.005Z,1013.30
2023-05-18T04:50:22.208Z,1013.31
2023-05-18T04:51:23.391Z,1013.27
2023-05-18T04:52:23.537Z,1013.29
2023-05-18T04:53:22.677Z,1013.28
2023-05-18T04:54:23.785Z,1013.32
2023-05-18T04:55:23.946Z,1013.30
2023-05-18T04:56:23.159Z,1013.30
2023-05-18T04:57:26.284Z,1013.30
2023-05-18T04:58:24.393Z,1013.30
2023-05-18T04:59:23.528Z,1013.35
2023-05-18T05:00:24.620Z,1013.29
2023-05-18T05:01:23.849Z,1013.34
2023-05-18T05:02:25.194Z,1013.35
2023-05-18T05:03:24.524Z,1013.35
2023-05-18T05:04:27.252Z,1013.38
2023-05-18T05:05:27.085Z,1013.37
2023-05-18T05:06:26.069Z,1013.43
2023-05-18T05:07:25.452Z,1013.37
2023-05-18T05:08:25.587Z,1013.36
2023-05-18T05:09:26.659Z,1013.40
2023-05-18T05:10:25.830Z,1013.43
2023-05-18T05:11:26.083Z,1013.38
2023-05-18T05:12:26.216Z,1013.48
2023-05-18T05:13:28.863Z,1013.40
2023-05-18T05:14:26.510Z,1013.37
2023-05-18T05:15:27.595Z,1013.37
2023-05-18T05:16:26.841Z,1013.35
2023-05-18T05:17:27.229Z,1013.33
2023-05-18T05:18:27.508Z,1013.36
2023-05-18T05:19:27.757Z,1013.31
2023-05-18T05:20:28.912Z,1013.35
2023-05-18T05:21:28.064Z,1013.35
2023-05-18T05:22:28.243Z,1013.34
2023-05-18T05:23:30.001Z,1013.31
2023-05-18T05:24:31.189Z,1013.27
2023-05-18T05:25:29.953Z,1013.22
2023-05-18T05:26:32.653Z,1013.23
2023-05-18T05:27:29.314Z,1013.26
2023-05-18T05:28:31.970Z,1013.30
2023-05-18T05:29:29.891Z,1013.24
2023-05-18T05:30:31.812Z,1013.28
2023-05-18T05:31:30.503Z,1013.32
2023-05-18T05:32:30.845Z,1013.23
2023-05-18T05:33:31.038Z,1013.27
2023-05-18T05:34:33.612Z,1013.28
2023-05-18T05:35:33.885Z,1013.21
2023-05-18T05:36:33.566Z,1013.24
2023-05-18T05:37:31.790Z,1013.27
2023-05-18T05:38:32.024Z,1013.31
2023-05-18T05:39:33.689Z,1013.32
2023-05-18T05:40:33.237Z,1013.25
2023-05-18T05:41:32.598Z,1013.30
2023-05-18T05:42:32.868Z,1013.23
2023-05-18T05:43:33.079Z,1013.26
2023-05-18T05:44:33.302Z,1013.31
2023-05-18T05:45:33.866Z,1013.28
2023-05-18T05:46:33.817Z,1013.27
2023-05-18T05:47:34.042Z,1013.28
2023-05-18T05:48:34.500Z,1013.33
2023-05-18T05:49:34.627Z,1013.31
2023-05-18T05:50:34.800Z,1013.27
2023-05-18T05:51:34.979Z,1013.36
2023-05-18T05:52:35.291Z,1013.30
2023-05-18T05:53:35.572Z,1013.34
2023-05-18T05:54:37.629Z,1013.33
2023-05-18T05:55:35.929Z,1013.38
2023-05-18T05:56:38.741Z,1013.38
2023-05-18T05:57:36.478Z,1013.36
2023-05-18T05:58:37.715Z,1013.39
2023-05-18T05:59:37.065Z,1013.37
2023-05-18T06:00:37.406Z,1013.36
2023-05-18T06:01:37.834Z,1013.37
2023-05-18T06:02:37.889Z,1013.37
2023-05-18T06:03:39.072Z,1013.37
2023-05-18T06:05:06.462Z,1013.39
2023-05-18T06:05:38.176Z,1013.42
2023-05-18T06:06:38.427Z,1013.37
2023-05-18T06:07:38.539Z,1013.40
2023-05-18T06:08:38.873Z,1013.39
2023-05-18T06:09:39.086Z,1013.42
2023-05-18T06:10:40.626Z,1013.42
2023-05-18T06:11:39.382Z,1013.41
2023-05-18T06:12:40.571Z,1013.40
2023-05-18T06:13:39.907Z,1013.41
2023-05-18T06:14:40.146Z,1013.42
2023-05-18T06:15:42.754Z,1013.40
2023-05-18T06:16:40.449Z,1013.39
2023-05-18T06:17:40.735Z,1013.42
2023-05-18T06:18:41.028Z,1013.47
2023-05-18T06:19:41.261Z,1013.40
2023-05-18T06:20:41.442Z,1013.36
2023-05-18T06:21:46.568Z,1013.40
2023-05-18T06:22:42.924Z,1013.37
2023-05-18T06:23:43.202Z,1013.42
2023-05-18T06:24:42.433Z,1013.45
2023-05-18T06:25:45.523Z,1013.44
2023-05-18T06:26:42.826Z,1013.41
2023-05-18T06:27:43.142Z,1013.42
2023-05-18T06:28:45.989Z,1013.44
2023-05-18T06:29:46.169Z,1013.50
2023-05-18T06:30:44.736Z,1013.44
2023-05-18T06:31:43.909Z,1013.46
2023-05-18T06:32:44.362Z,1013.46
2023-05-18T06:33:47.068Z,1013.52
2023-05-18T06:34:57.873Z,1013.49
2023-05-18T06:35:45.033Z,1013.48
2023-05-18T06:36:45.302Z,1013.49
2023-05-18T06:37:48.404Z,1013.47
2023-05-18T06:38:45.590Z,1013.46
2023-05-18T06:39:45.786Z,1013.49
2023-05-18T06:40:46.031Z,1013.45
2023-05-18T06:41:46.343Z,1013.44
2023-05-18T06:42:47.490Z,1013.43
2023-05-18T06:43:46.727Z,1013.46
2023-05-18T06:44:46.859Z,1013.51
2023-05-18T06:45:47.934Z,1013.50
2023-05-18T06:46:51.088Z,1013.50
2023-05-18T06:47:48.255Z,1013.54
2023-05-18T06:48:47.426Z,1013.48
2023-05-18T06:49:47.561Z,1013.56
2023-05-18T06:50:50.201Z,1013.51
2023-05-18T06:51:47.826Z,1013.49
2023-05-18T06:52:48.030Z,1013.55
2023-05-18T06:53:49.216Z,1013.53
2023-05-18T06:55:00.825Z,1013.49
2023-05-18T06:55:50.536Z,1013.54
2023-05-18T06:56:48.751Z,1013.50
2023-05-18T06:57:49.809Z,1013.52
2023-05-18T06:58:48.996Z,1013.45
2023-05-18T06:59:49.184Z,1013.55
2023-05-18T07:00:49.434Z,1013.53
2023-05-18T07:01:49.622Z,1013.50
2023-05-18T07:02:49.819Z,1013.48
2023-05-18T07:03:50.022Z,1013.45
2023-05-18T07:05:50.420Z,1013.44
2023-05-18T07:06:52.031Z,1013.47
2023-05-18T07:07:50.731Z,1013.51
2023-05-18T07:08:51.861Z,1013.48
2023-05-18T07:09:50.997Z,1013.44
2023-05-18T07:10:51.220Z,1013.43
2023-05-18T07:11:51.339Z,1013.46
2023-05-18T07:12:52.866Z,1013.47
2023-05-18T07:13:51.596Z,1013.45
2023-05-18T07:15:04.708Z,1013.44
2023-05-18T07:15:54.497Z,1013.38
2023-05-18T07:16:52.273Z,1013.42
2023-05-18T07:17:52.423Z,1013.40
2023-05-18T07:18:56.404Z,1013.43
2023-05-18T07:19:53.033Z,1013.43
2023-05-18T07:20:53.186Z,1013.41
2023-05-18T07:21:54.326Z,1013.37
2023-05-18T07:22:55.502Z,1013.42
2023-05-18T07:23:53.646Z,1013.48
2023-05-18T07:24:55.225Z,1013.50
2023-05-18T07:25:53.846Z,1013.50
2023-05-18T07:26:55.005Z,1013.52
2023-05-18T07:27:54.313Z,1013.45
2023-05-18T07:28:54.453Z,1013.47
2023-05-18T07:29:54.657Z,1013.49
2023-05-18T07:30:54.951Z,1013.42
2023-05-18T07:31:58.140Z,1013.45
2023-05-18T07:32:55.444Z,1013.47
2023-05-18T07:33:57.333Z,1013.50
2023-05-18T07:35:04.007Z,1013.51
2023-05-18T07:35:57.143Z,1013.48
2023-05-18T07:36:58.322Z,1013.47
2023-05-18T07:37:56.454Z,1013.45
2023-05-18T07:38:56.602Z,1013.46
2023-05-18T07:40:09.274Z,1013.37
2023-05-18T07:40:56.970Z,1013.41
2023-05-18T07:41:57.067Z,1013.40
2023-05-18T07:42:57.469Z,1013.38
2023-05-18T07:43:57.598Z,1013.39
2023-05-18T07:44:59.201Z,1013.42
2023-05-18T07:45:58.512Z,1013.43
2023-05-18T07:46:58.214Z,1013.41
2023-05-18T07:47:58.556Z,1013.39
2023-05-18T07:48:58.729Z,1013.36
2023-05-18T07:49:58.884Z,1013.34
2023-05-18T07:50:58.971Z,1013.34
2023-05-18T07:51:59.138Z,1013.39
2023-05-18T07:52:59.258Z,1013.47
2023-05-18T07:53:59.395Z,1013.42
2023-05-18T07:55:02.038Z,1013.42
2023-05-18T07:55:59.654Z,1013.40
2023-05-18T07:57:03.988Z,1013.38
2023-05-18T07:58:00.167Z,1013.37
2023-05-18T07:59:00.291Z,1013.35
2023-05-18T08:00:00.441Z,1013.40
2023-05-18T08:01:00.681Z,1013.38
2023-05-18T08:02:03.343Z,1013.36
2023-05-18T08:03:01.263Z,1013.29
2023-05-18T08:04:03.126Z,1013.24
2023-05-18T08:05:04.130Z,1013.28
2023-05-18T08:06:01.743Z,1013.30
2023-05-18T08:07:01.919Z,1013.31
2023-05-18T08:08:13.510Z,1013.24
2023-05-18T08:09:02.273Z,1013.29
2023-05-18T08:10:02.398Z,1013.25
2023-05-18T08:11:02.552Z,1013.26
2023-05-18T08:12:02.677Z,1013.29
2023-05-18T08:13:02.759Z,1013.24
2023-05-18T08:14:03.843Z,1013.27
2023-05-18T08:15:05.479Z,1013.28
2023-05-18T08:16:11.927Z,1013.25
2023-05-18T08:17:03.253Z,1013.25
2023-05-18T08:18:03.474Z,1013.22
2023-05-18T08:19:06.185Z,1013.22
2023-05-18T08:20:03.871Z,1013.22
2023-05-18T08:21:04.030Z,1013.21
2023-05-18T08:22:04.211Z,1013.25
2023-05-18T08:23:04.377Z,1013.18
2023-05-18T08:24:04.568Z,1013.19
2023-05-18T08:25:09.082Z,1013.18
2023-05-18T08:26:04.922Z,1013.19
2023-05-18T08:27:05.023Z,1013.12
2023-05-18T08:28:05.298Z,1013.19
2023-05-18T08:29:11.138Z,1013.13
2023-05-18T08:30:08.377Z,1013.13
2023-05-18T08:31:06.095Z,1013.09
2023-05-18T08:32:06.300Z,1013.09
2023-05-18T08:33:07.424Z,1013.04
2023-05-18T08:34:09.065Z,1013.09
2023-05-18T08:35:07.690Z,1013.10
2023-05-18T08:36:08.343Z,1013.05
2023-05-18T08:37:07.999Z,1012.98
2023-05-18T08:38:07.091Z,1013.00
2023-05-18T08:39:07.236Z,1013.00
2023-05-18T08:40:09.867Z,1012.95
2023-05-18T08:41:07.518Z,1012.96
2023-05-18T08:42:07.702Z,1013.01
2023-05-18T08:43:07.844Z,1012.98
2023-05-18T08:44:09.039Z,1013.02
2023-05-18T08:45:10.396Z,1012.94
2023-05-18T08:46:08.583Z,1012.90
2023-05-18T08:47:08.745Z,1012.92
2023-05-18T08:48:08.996Z,1012.91
2023-05-18T08:49:11.751Z,1012.89
2023-05-18T08:50:09.483Z,1012.89
2023-05-18T08:51:09.822Z,1012.89
2023-05-18T08:52:10.963Z,1012.89
2023-05-18T08:53:10.112Z,1012.87
2023-05-18T08:54:10.439Z,1012.87
2023-05-18T08:55:12.557Z,1012.83
2023-05-18T08:56:10.804Z,1012.85
2023-05-18T08:57:10.955Z,1012.89
2023-05-18T08:58:11.100Z,1012.89
2023-05-18T08:59:13.397Z,1012.88
2023-05-18T09:00:14.011Z,1012.90
2023-05-18T09:01:12.787Z,1012.85
2023-05-18T09:02:11.976Z,1012.98
2023-05-18T09:03:12.237Z,1012.86
2023-05-18T09:04:14.431Z,1012.91
2023-05-18T09:05:15.306Z,1012.92
2023-05-18T09:06:12.770Z,1012.90
2023-05-18T09:07:12.874Z,1012.87
2023-05-18T09:08:12.990Z,1012.88
2023-05-18T09:09:14.121Z,1012.90
2023-05-18T09:10:13.973Z,1012.90
2023-05-18T09:11:17.401Z,1012.89
2023-05-18T09:12:13.996Z,1012.86
2023-05-18T09:13:14.129Z,1012.86
2023-05-18T09:14:14.230Z,1012.89
2023-05-18T09:15:15.372Z,1012.89
2023-05-18T09:16:14.677Z,1012.88
2023-05-18T09:17:14.796Z,1012.86
2023-05-18T09:18:14.905Z,1012.85
2023-05-18T09:19:15.172Z,1012.82
2023-05-18T09:20:16.277Z,1012.80
2023-05-18T09:21:15.395Z,1012.81
2023-05-18T09:22:17.472Z,1012.84
2023-05-18T09:23:15.581Z,1012.81
2023-05-18T09:24:15.697Z,1012.80
2023-05-18T09:25:16.688Z,1012.83
2023-05-18T09:26:17.911Z,1012.78
2023-05-18T09:27:17.189Z,1012.80
2023-05-18T09:28:16.288Z,1012.77
2023-05-18T09:29:17.477Z,1012.78
2023-05-18T09:30:17.556Z,1012.77
2023-05-18T09:31:16.727Z,1012.77
2023-05-18T09:32:16.960Z,1012.74
2023-05-18T09:33:19.196Z,1012.70
2023-05-18T09:34:17.433Z,1012.73
2023-05-18T09:35:17.927Z,1012.71
2023-05-18T09:36:17.525Z,1012.68
2023-05-18T09:37:17.723Z,1012.71
2023-05-18T09:38:17.849Z,1012.71
2023-05-18T09:39:17.969Z,1012.74
2023-05-18T09:40:18.067Z,1012.69
2023-05-18T09:41:18.196Z,1012.69
2023-05-18T09:42:18.295Z,1012.72
2023-05-18T09:43:20.417Z,1012.67
2023-05-18T09:44:18.676Z,1012.66
2023-05-18T09:45:20.816Z,1012.72
2023-05-18T09:46:19.779Z,1012.68
2023-05-18T09:47:19.954Z,1012.73
2023-05-18T09:48:19.084Z,1012.72
2023-05-18T09:49:23.274Z,1012.77
2023-05-18T09:50:20.406Z,1012.77
2023-05-18T09:51:22.035Z,1012.69
2023-05-18T09:52:19.796Z,1012.70
2023-05-18T09:53:20.863Z,1012.69
2023-05-18T09:54:20.683Z,1012.73
2023-05-18T09:55:20.100Z,1012.73
2023-05-18T09:56:20.186Z,1012.71
2023-05-18T09:57:20.321Z,1012.77
2023-05-18T09:58:22.878Z,1012.73
2023-05-18T09:59:20.496Z,1012.75
2023-05-18T10:00:22.203Z,1012.74
2023-05-18T10:01:20.774Z,1012.80
2023-05-18T10:02:25.164Z,1012.72
2023-05-18T10:03:21.336Z,1012.70
2023-05-18T10:04:21.519Z,1012.71
2023-05-18T10:05:21.735Z,1012.71
2023-05-18T10:06:21.864Z,1012.76
2023-05-18T10:07:21.941Z,1012.77
2023-05-18T10:08:22.067Z,1012.68
2023-05-18T10:09:22.188Z,1012.71
2023-05-18T10:10:23.366Z,1012.65
2023-05-18T10:11:22.472Z,1012.68
2023-05-18T10:12:22.567Z,1012.67
2023-05-18T10:13:23.685Z,1012.72
2023-05-18T10:14:22.888Z,1012.66
2023-05-18T10:15:25.493Z,1012.64
2023-05-18T10:16:23.194Z,1012.57
2023-05-18T10:17:23.321Z,1012.59
2023-05-18T10:18:23.529Z,1012.56
2023-05-18T10:19:23.772Z,1012.57
2023-05-18T10:20:25.617Z,1012.54
2023-05-18T10:21:24.182Z,1012.57
2023-05-18T10:22:24.244Z,1012.54
2023-05-18T10:23:24.294Z,1012.56
2023-05-18T10:24:24.354Z,1012.50
2023-05-18T10:25:24.420Z,1012.53
2023-05-18T10:26:24.465Z,1012.55
2023-05-18T10:27:24.508Z,1012.51
2023-05-18T10:28:24.561Z,1012.52
2023-05-18T10:29:27.196Z,1012.55
2023-05-18T10:30:25.928Z,1012.52
2023-05-18T10:31:29.171Z,1012.54
2023-05-18T10:32:25.301Z,1012.45
2023-05-18T10:33:29.641Z,1012.45
2023-05-18T10:34:27.996Z,1012.43
2023-05-18T10:35:28.630Z,1012.39
2023-05-18T10:36:27.681Z,1012.44
2023-05-18T10:37:26.238Z,1012.37
2023-05-18T10:38:26.300Z,1012.35
2023-05-18T10:39:26.380Z,1012.34
2023-05-18T10:40:26.433Z,1012.40
2023-05-18T10:41:26.618Z,1012.34
2023-05-18T10:42:26.697Z,1012.35
2023-05-18T10:43:40.322Z,1012.36
2023-05-18T10:44:27.941Z,1012.24
2023-05-18T10:45:27.052Z,1012.30
2023-05-18T10:46:29.534Z,1012.30
2023-05-18T10:47:28.254Z,1012.29
2023-05-18T10:48:27.940Z,1012.29
2023-05-18T10:49:27.074Z,1012.30
2023-05-18T10:50:29.781Z,1012.23
2023-05-18T10:51:28.382Z,1012.19
2023-05-18T10:52:27.484Z,1012.24
2023-05-18T10:53:27.533Z,1012.28
2023-05-18T10:54:27.618Z,1012.26
2023-05-18T10:55:28.628Z,1012.27
2023-05-18T10:56:28.643Z,1012.24
2023-05-18T10:57:28.652Z,1012.26
2023-05-18T10:58:27.765Z,1012.27
2023-05-18T10:59:28.984Z,1012.27
2023-05-18T11:00:28.094Z,1012.32
2023-05-18T11:01:28.246Z,1012.24
2023-05-18T11:02:32.790Z,1012.21
2023-05-18T11:03:28.649Z,1012.22
2023-05-18T11:04:31.575Z,1012.22
2023-05-18T11:05:30.603Z,1012.19
2023-05-18T11:06:29.670Z,1012.26
2023-05-18T11:07:28.744Z,1012.26
2023-05-18T11:08:28.835Z,1012.15
2023-05-18T11:09:29.013Z,1012.15
2023-05-18T11:10:33.340Z,1012.15
2023-05-18T11:11:29.424Z,1012.18
2023-05-18T11:12:29.559Z,1012.15
2023-05-18T11:13:32.128Z,1012.10
2023-05-18T11:14:29.888Z,1012.03
2023-05-18T11:15:31.932Z,1012.11
2023-05-18T11:16:30.632Z,1012.10
2023-05-18T11:17:30.452Z,1012.09
2023-05-18T11:18:30.550Z,1012.11
2023-05-18T11:19:30.677Z,1012.07
2023-05-18T11:20:30.893Z,1012.06
2023-05-18T11:21:31.143Z,1012.03
2023-05-18T11:22:31.260Z,1012.08
2023-05-18T11:23:33.355Z,1011.97
2023-05-18T11:24:31.456Z,1011.98
2023-05-18T11:25:33.566Z,1012.04
2023-05-18T11:26:31.684Z,1011.97
2023-05-18T11:27:32.239Z,1011.98
2023-05-18T11:28:34.997Z,1012.03
2023-05-18T11:29:32.101Z,1011.99
2023-05-18T11:30:32.376Z,1012.05
2023-05-18T11:31:33.030Z,1011.99
2023-05-18T11:32:34.472Z,1012.07
2023-05-18T11:33:33.477Z,1012.01
2023-05-18T11:34:35.164Z,1012.01
2023-05-18T11:35:35.680Z,1012.05
2023-05-18T11:36:33.914Z,1011.96
2023-05-18T11:37:33.165Z,1012.00
2023-05-18T11:38:33.364Z,1012.04
2023-05-18T11:39:34.756Z,1012.03
2023-05-18T11:40:33.665Z,1011.99
2023-05-18T11:41:36.510Z,1012.02
2023-05-18T11:42:34.134Z,1012.03
2023-05-18T11:43:35.880Z,1012.00
2023-05-18T11:44:34.506Z,1011.95
2023-05-18T11:45:37.113Z,1011.99
2023-05-18T11:46:34.713Z,1012.00
2023-05-18T11:47:34.928Z,1011.99
2023-05-18T11:48:35.272Z,1011.98
2023-05-18T11:49:35.509Z,1011.96
2023-05-18T11:50:35.611Z,1011.97
2023-05-18T11:51:35.698Z,1011.96
2023-05-18T11:52:36.101Z,1012.01
2023-05-18T11:53:36.209Z,1012.04
2023-05-18T11:54:37.219Z,1011.99
2023-05-18T11:55:38.918Z,1011.94
2023-05-18T11:56:36.535Z,1011.93
2023-05-18T11:57:36.663Z,1011.97
2023-05-18T11:58:38.870Z,1011.95
2023-05-18T11:59:38.746Z,1012.01
2023-05-18T12:00:37.433Z,1011.97
2023-05-18T12:01:37.618Z,1011.96
2023-05-18T12:02:37.874Z,1011.99
2023-05-18T12:03:40.354Z,1011.83
2023-05-18T12:04:41.149Z,1011.91
2023-05-18T12:05:40.724Z,1011.93
2023-05-18T12:06:38.847Z,1011.90
2023-05-18T12:07:38.935Z,1011.83
2023-05-18T12:08:39.162Z,1011.81
2023-05-18T12:09:39.368Z,1011.82